Time;durP1;ratioP1;P1;durP2;ratioP2;P2;SDS_P1;SDS_P2;PMS_P1;PMS_P2;Temp;Humidity;BMP_temperature;BMP_pressure;BME280_temperature;BME280_humidity;BME280_pressure;Samples;Min_cycle;Max_cycle;Signal;HPM_P1;HPM_P2
2022/04/06 00:01:30;;;;;;;;;1.25;1.25;;;;;-142.59;100.00;56100.38;5111090;27;49836;-66
2022/04/06 00:03:55;;;;;;;;;1.50;1.00;;;;;-142.59;100.00;56100.38;5110849;27;49862;-66
2022/04/06 00:06:21;;;;;;;;;1.25;1.25;;;;;-142.59;100.00;56100.38;5111082;27;50022;-69
2022/04/06 00:08:46;;;;;;;;;1.00;1.00;;;;;-142.59;100.00;56100.38;5111188;27;50029;-66
2022/04/06 00:11:11;;;;;;;;;1.75;1.00;;;;;-142.59;100.00;56100.38;5110244;27;49976;-72
2022/04/06 00:13:37;;;;;;;;;1.00;1.00;;;;;-142.59;100.00;56100.38;5110574;27;50576;-69
2022/04/06 00:16:02;;;;;;;;;3.25;1.75;;;;;-142.59;100.00;56100.38;5110599;27;49750;-71
2022/04/06 00:18:27;;;;;;;;;0.75;0.75;;;;;-142.59;100.00;56100.38;5110726;27;49775;-69
2022/04/06 00:20:53;;;;;;;;;3.75;2.75;;;;;-142.59;100.00;56100.38;5109441;27;49703;-72
2022/04/06 00:23:18;;;;;;;;;2.00;2.00;;;;;-142.59;100.00;56100.38;5110459;27;50265;-68
2022/04/06 00:25:44;;;;;;;;;1.75;1.75;;;;;-142.59;100.00;56100.38;5110680;27;49750;-72
2022/04/06 00:28:09;;;;;;;;;1.25;1.00;;;;;-142.59;100.00;56100.38;5110611;27;49741;-72
2022/04/06 00:30:34;;;;;;;;;2.25;1.25;;;;;-142.59;100.00;56100.38;5112797;27;49998;-69
2022/04/06 00:33:00;;;;;;;;;1.00;1.00;;;;;-142.59;100.00;56100.38;5113637;27;50414;-67
2022/04/06 00:35:32;;;;;;;;;1.50;1.00;;;;;-142.59;100.00;56100.38;5114002;27;49728;-70
2022/04/06 00:38:03;;;;;;;;;1.00;1.00;;;;;-142.59;100.00;56100.38;5114145;27;49603;-68
2022/04/06 00:40:29;;;;;;;;;2.00;1.00;;;;;-142.59;100.00;56100.38;5113999;27;49670;-67
2022/04/06 00:42:55;;;;;;;;;2.50;2.00;;;;;-142.59;100.00;56100.38;5113752;27;50876;-71
2022/04/06 00:45:22;;;;;;;;;4.00;2.00;;;;;-142.59;100.00;56100.38;5114164;27;49950;-68
2022/04/06 00:47:49;;;;;;;;;1.00;1.00;;;;;-142.59;100.00;56100.38;5113927;27;49980;-71
2022/04/06 00:50:14;;;;;;;;;3.50;2.25;;;;;-142.59;100.00;56100.38;5113924;27;49636;-66
2022/04/06 00:52:41;;;;;;;;;5.00;3.50;;;;;-142.59;100.00;56100.38;5113649;27;49837;-66
2022/04/06 00:55:08;;;;;;;;;2.75;2.00;;;;;-142.59;100.00;56100.38;5113525;27;49850;-72
2022/04/06 00:57:34;;;;;;;;;1.00;1.00;;;;;-142.59;100.00;56100.38;5113692;27;49971;-73
2022/04/06 01:00:01;;;;;;;;;4.00;2.00;;;;;-142.59;100.00;56100.38;5114060;27;50204;-73
2022/04/06 01:02:26;;;;;;;;;4.25;2.00;;;;;-142.59;100.00;56100.38;5113596;27;49640;-72
2022/04/06 01:04:52;;;;;;;;;2.75;1.00;;;;;-142.59;100.00;56100.38;5093918;27;49836;-67
2022/04/06 01:07:20;;;;;;;;;5.75;3.75;;;;;-142.59;100.00;56100.38;5093940;27;50141;-66
2022/04/06 01:09:46;;;;;;;;;5.75;2.50;;;;;-142.59;100.00;56100.38;5094061;27;49794;-71
2022/04/06 01:12:12;;;;;;;;;2.50;1.75;;;;;-142.59;100.00;56100.38;5093336;27;50760;-69
2022/04/06 01:14:39;;;;;;;;;3.00;3.00;;;;;-142.59;100.00;56100.38;5093728;27;49829;-72
2022/04/06 01:17:09;;;;;;;;;5.50;4.00;;;;;-142.59;100.00;56100.38;5093777;27;50161;-67
2022/04/06 01:19:37;;;;;;;;;1.75;1.75;;;;;-142.59;100.00;56100.38;5092699;27;50201;-68
2022/04/06 01:22:17;;;;;;;;;2.00;2.00;;;;;-142.59;100.00;56100.38;5093656;27;49785;-72
2022/04/06 01:24:44;;;;;;;;;3.00;3.00;;;;;-142.59;100.00;56100.38;5107603;27;49882;-71
2022/04/06 01:27:10;;;;;;;;;2.00;2.00;;;;;-142.59;100.00;56100.38;5113076;27;49749;-70
2022/04/06 01:29:37;;;;;;;;;3.00;2.50;;;;;-142.59;100.00;56100.38;5113350;27;49878;-72
2022/04/06 01:32:13;;;;;;;;;2.00;2.00;;;;;-142.59;100.00;56100.38;5113185;27;50260;-71
2022/04/06 01:34:40;;;;;;;;;4.25;3.00;;;;;-142.59;100.00;56100.38;5107971;27;49807;-67
2022/04/06 01:37:07;;;;;;;;;2.25;2.25;;;;;-142.59;100.00;56100.38;5113377;27;49871;-68
2022/04/06 01:39:34;;;;;;;;;3.75;3.25;;;;;-142.59;100.00;56100.38;5113348;27;49724;-69
2022/04/06 01:42:01;;;;;;;;;3.25;2.00;;;;;-142.59;100.00;56100.38;5110790;27;51620;-72
2022/04/06 01:44:28;;;;;;;;;2.00;2.00;;;;;-142.59;100.00;56100.38;5112086;27;49858;-69
2022/04/06 01:46:53;;;;;;;;;2.50;2.50;;;;;-142.59;100.00;56100.38;5112731;27;49711;-70
2022/04/06 01:52:13;;;;;;;;;3.00;2.00;;;;;-142.59;100.00;56100.38;5089188;27;49868;-67
2022/04/06 01:54:50;;;;;;;;;1.75;1.75;;;;;-142.59;100.00;56100.38;5112610;27;49859;-66
2022/04/06 01:57:17;;;;;;;;;2.25;2.25;;;;;-142.59;100.00;56100.38;5112784;27;49906;-64
2022/04/06 01:59:43;;;;;;;;;3.75;2.00;;;;;-142.59;100.00;56100.38;5112795;27;49594;-65
2022/04/06 02:02:11;;;;;;;;;2.00;2.00;;;;;-142.59;100.00;56100.38;5112556;27;50520;-66
2022/04/06 02:04:37;;;;;;;;;7.00;3.00;;;;;-142.59;100.00;56100.38;5112537;27;49765;-67
2022/04/06 02:07:03;;;;;;;;;4.00;3.00;;;;;-142.59;100.00;56100.38;5112531;27;49730;-64
2022/04/06 02:09:29;;;;;;;;;4.25;3.00;;;;;-142.59;100.00;56100.38;5127802;27;49940;-64
2022/04/06 02:11:55;;;;;;;;;3.00;2.50;;;;;-142.59;100.00;56100.38;5112451;27;50525;-66
2022/04/06 02:14:22;;;;;;;;;2.75;1.00;;;;;-142.59;100.00;56100.38;5112948;27;50171;-64
2022/04/06 02:16:47;;;;;;;;;1.00;1.00;;;;;-142.59;100.00;56100.38;5112626;27;49674;-65
2022/04/06 02:19:13;;;;;;;;;2.75;1.50;;;;;-142.59;100.00;56100.38;5112582;27;50124;-64
2022/04/06 02:21:38;;;;;;;;;1.00;1.00;;;;;-142.59;100.00;56100.38;5112314;27;50494;-64
2022/04/06 02:24:04;;;;;;;;;1.75;1.75;;;;;-142.59;100.00;56100.38;5112168;27;49899;-66
2022/04/06 02:26:29;;;;;;;;;3.00;3.00;;;;;-142.59;100.00;56100.38;5097329;27;49952;-65
2022/04/06 02:28:56;;;;;;;;;2.25;2.25;;;;;-142.59;100.00;56100.38;5112571;27;49770;-64
2022/04/06 02:31:22;;;;;;;;;2.50;2.50;;;;;-142.59;100.00;56100.38;5112196;27;51144;-64
2022/04/06 02:33:48;;;;;;;;;2.00;2.00;;;;;-142.59;100.00;56100.38;5112391;27;49865;-65
2022/04/06 02:36:13;;;;;;;;;2.00;2.00;;;;;-142.59;100.00;56100.38;5112278;27;50108;-65
2022/04/06 02:38:39;;;;;;;;;2.00;2.00;;;;;-142.59;100.00;56100.38;5112420;27;49920;-64
2022/04/06 02:41:08;;;;;;;;;1.00;1.00;;;;;-142.59;100.00;56100.38;5112170;27;50521;-66
2022/04/06 02:43:34;;;;;;;;;2.25;2.00;;;;;-142.59;100.00;56100.38;5112059;27;49804;-67
2022/04/06 02:45:59;;;;;;;;;1.00;1.00;;;;;-142.59;100.00;56100.38;5092287;27;49792;-64
2022/04/06 02:48:25;;;;;;;;;2.75;2.75;;;;;-142.59;100.00;56100.38;5092600;27;50051;-65
2022/04/06 02:50:50;;;;;;;;;2.00;1.00;;;;;-142.59;100.00;56100.38;5092102;27;50012;-65
2022/04/06 02:53:15;;;;;;;;;3.25;1.25;;;;;-142.59;100.00;56100.38;5092231;27;50097;-64
2022/04/06 02:55:41;;;;;;;;;1.00;1.00;;;;;-142.59;100.00;56100.38;5092174;27;49692;-69
2022/04/06 02:58:06;;;;;;;;;1.25;1.00;;;;;-142.59;100.00;56100.38;5092047;27;49775;-66
2022/04/06 03:00:32;;;;;;;;;1.50;1.50;;;;;-142.59;100.00;56100.38;5108460;27;50404;-63
2022/04/06 03:02:58;;;;;;;;;1.00;1.00;;;;;-142.59;100.00;56100.38;5094475;27;49914;-65
2022/04/06 03:05:24;;;;;;;;;0.75;0.25;;;;;-142.59;100.00;56100.38;5091988;27;49741;-64
2022/04/06 03:07:50;;;;;;;;;1.00;0.75;;;;;-142.59;100.00;56100.38;5092275;27;49980;-65
2022/04/06 03:10:16;;;;;;;;;0.50;0.50;;;;;-142.59;100.00;56100.38;5092008;27;50496;-66
2022/04/06 03:12:41;;;;;;;;;0.00;0.00;;;;;-142.59;100.00;56100.38;5091786;27;49678;-66
2022/04/06 03:15:07;;;;;;;;;1.50;1.50;;;;;-142.59;100.00;56100.38;5091967;27;49986;-64
2022/04/06 03:17:32;;;;;;;;;0.00;0.00;;;;;-142.59;100.00;56100.38;5091799;27;49782;-65
2022/04/06 03:19:57;;;;;;;;;2.00;2.00;;;;;-142.59;100.00;56100.38;5091536;27;51194;-67
2022/04/06 03:22:23;;;;;;;;;1.50;1.50;;;;;-142.59;100.00;56100.38;5091657;27;49890;-69
2022/04/06 03:24:48;;;;;;;;;2.00;1.00;;;;;-142.59;100.00;56100.38;5091854;27;49765;-64
2022/04/06 03:27:14;;;;;;;;;0.00;0.00;;;;;-142.59;100.00;56100.38;5092148;27;49832;-66
2022/04/06 03:29:40;;;;;;;;;0.50;0.25;;;;;-142.59;100.00;56100.38;5091525;27;49846;-64
2022/04/06 03:32:07;;;;;;;;;1.00;1.00;;;;;-142.59;100.00;56100.38;5091548;27;49805;-65
2022/04/06 03:34:32;;;;;;;;;0.00;0.00;;;;;-142.59;100.00;56100.38;5091728;27;49795;-65
2022/04/06 03:36:57;;;;;;;;;1.00;1.00;;;;;-142.59;100.00;56100.38;5105062;27;50100;-65
2022/04/06 03:39:23;;;;;;;;;1.75;1.00;;;;;-142.59;100.00;56100.38;5102027;27;52540;-66
2022/04/06 03:41:48;;;;;;;;;0.00;0.00;;;;;-142.59;100.00;56100.38;5091010;27;49756;-65
2022/04/06 03:44:13;;;;;;;;;2.00;1.00;;;;;-142.59;100.00;56100.38;5093466;27;49836;-65
2022/04/06 03:46:39;;;;;;;;;1.00;1.00;;;;;-142.59;100.00;56100.38;5099341;27;49811;-68
2022/04/06 03:49:04;;;;;;;;;1.50;1.00;;;;;-142.59;100.00;56100.38;5104250;27;49698;-67
2022/04/06 03:51:30;;;;;;;;;1.00;1.00;;;;;-142.59;100.00;56100.38;5103889;27;49879;-64
2022/04/06 03:53:55;;;;;;;;;2.00;1.00;;;;;-142.59;100.00;56100.38;5091212;27;49734;-66
2022/04/06 03:56:21;;;;;;;;;0.00;0.00;;;;;-142.59;100.00;56100.38;5092096;27;49896;-66
2022/04/06 03:58:47;;;;;;;;;0.25;0.25;;;;;-142.59;100.00;56100.38;5094558;27;50142;-67
2022/04/06 04:01:12;;;;;;;;;1.00;1.00;;;;;-142.59;100.00;56100.38;5103621;27;49876;-68
2022/04/06 04:03:37;;;;;;;;;1.00;1.00;;;;;-142.59;100.00;56100.38;5104275;27;50129;-68
2022/04/06 04:06:03;;;;;;;;;0.50;0.50;;;;;-142.59;100.00;56100.38;5109151;27;49789;-64
2022/04/06 04:08:28;;;;;;;;;1.00;0.00;;;;;-142.59;100.00;56100.38;5109943;27;49754;-65
2022/04/06 04:10:54;;;;;;;;;0.00;0.00;;;;;-142.59;100.00;56100.38;5098945;27;49763;-64
2022/04/06 04:13:19;;;;;;;;;0.00;0.00;;;;;-142.59;100.00;56100.38;5110679;27;49816;-65
2022/04/06 04:15:45;;;;;;;;;0.00;0.00;;;;;-142.59;100.00;56100.38;5111044;27;49954;-64
2022/04/06 04:18:10;;;;;;;;;0.50;0.50;;;;;-142.59;100.00;56100.38;5111495;27;50344;-68
2022/04/06 04:20:36;;;;;;;;;1.00;1.00;;;;;-142.59;100.00;56100.38;5100140;27;49805;-69
2022/04/06 04:23:02;;;;;;;;;1.25;1.25;;;;;-142.59;100.00;56100.38;5098036;27;49823;-70
2022/04/06 04:25:27;;;;;;;;;1.00;0.00;;;;;-142.59;100.00;56100.38;5133865;27;49921;-64
2022/04/06 04:27:53;;;;;;;;;1.00;0.00;;;;;-142.59;100.00;56100.38;5099297;27;50589;-70
2022/04/06 04:30:19;;;;;;;;;1.75;0.75;;;;;-142.59;100.00;56100.38;5103979;27;49767;-69
2022/04/06 04:32:45;;;;;;;;;0.00;0.00;;;;;-142.59;100.00;56100.38;5097506;27;49858;-67
2022/04/06 04:35:11;;;;;;;;;0.25;0.25;;;;;-142.59;100.00;56100.38;5097588;27;50009;-64
2022/04/06 04:37:36;;;;;;;;;2.50;0.00;;;;;-142.59;100.00;56100.38;5097210;27;50375;-70
2022/04/06 04:40:03;;;;;;;;;0.00;0.00;;;;;-142.59;100.00;56100.38;5098827;27;49901;-69
2022/04/06 04:42:28;;;;;;;;;0.25;0.25;;;;;-142.59;100.00;56100.38;5105101;27;49826;-67
2022/04/06 04:44:54;;;;;;;;;1.00;1.00;;;;;-142.59;100.00;56100.38;5097400;27;49986;-71
2022/04/06 04:47:19;;;;;;;;;1.00;0.50;;;;;-142.59;100.00;56100.38;5096728;27;58830;-66
2022/04/06 04:49:44;;;;;;;;;1.25;1.25;;;;;-142.59;100.00;56100.38;5098168;27;49814;-66
2022/04/06 04:52:10;;;;;;;;;1.00;1.00;;;;;-142.59;100.00;56100.38;5097479;27;49949;-65
2022/04/06 04:54:36;;;;;;;;;0.25;0.00;;;;;-142.59;100.00;56100.38;5097616;27;50040;-64
2022/04/06 04:57:02;;;;;;;;;1.50;0.50;;;;;-142.59;100.00;56100.38;5097721;27;50517;-64
2022/04/06 04:59:27;;;;;;;;;1.00;1.00;;;;;-142.59;100.00;56100.38;5109716;27;49623;-64
2022/04/06 05:01:52;;;;;;;;;1.00;0.25;;;;;-142.59;100.00;56100.38;5097113;27;50002;-64
2022/04/06 05:04:19;;;;;;;;;0.75;0.00;;;;;-142.59;100.00;56100.38;5097501;27;49945;-65
2022/04/06 05:06:45;;;;;;;;;0.25;0.25;;;;;-142.59;100.00;56100.38;5098060;27;50259;-64
2022/04/06 05:09:10;;;;;;;;;1.00;1.00;;;;;-142.59;100.00;56100.38;5097268;27;49802;-65
2022/04/06 05:11:36;;;;;;;;;3.75;1.00;;;;;-142.59;100.00;56100.38;5097770;27;51503;-65
2022/04/06 05:14:02;;;;;;;;;1.00;1.00;;;;;-142.59;100.00;56100.38;5101833;27;49731;-65
2022/04/06 05:16:27;;;;;;;;;0.50;0.00;;;;;-142.59;100.00;56100.38;5100775;27;49879;-67
2022/04/06 05:18:54;;;;;;;;;0.50;0.50;;;;;-142.59;100.00;56100.38;5100430;27;49684;-65
2022/04/06 05:21:19;;;;;;;;;0.00;0.00;;;;;-142.59;100.00;56100.38;5094940;27;50214;-70
2022/04/06 05:23:45;;;;;;;;;1.00;1.00;;;;;-142.59;100.00;56100.38;5106849;27;49964;-66
2022/04/06 05:26:10;;;;;;;;;0.50;0.50;;;;;-142.59;100.00;56100.38;5109667;27;50626;-65
2022/04/06 05:28:35;;;;;;;;;2.00;0.00;;;;;-142.59;100.00;56100.38;5100607;27;49750;-65
2022/04/06 05:31:01;;;;;;;;;5.25;1.75;;;;;-142.59;100.00;56100.38;5098427;27;49883;-65
2022/04/06 05:33:26;;;;;;;;;0.00;0.00;;;;;-142.59;100.00;56100.38;5096121;27;49633;-72
2022/04/06 05:35:52;;;;;;;;;0.00;0.00;;;;;-142.59;100.00;56100.38;5098700;27;49858;-75
2022/04/06 05:38:17;;;;;;;;;1.00;1.00;;;;;-142.59;100.00;56100.38;5101078;27;49788;-68
2022/04/06 05:40:43;;;;;;;;;2.75;1.25;;;;;-142.59;100.00;56100.38;5107997;27;50381;-66
2022/04/06 05:43:08;;;;;;;;;0.50;0.00;;;;;-142.59;100.00;56100.38;5101338;27;49746;-67
2022/04/06 05:45:33;;;;;;;;;1.00;1.00;;;;;-142.59;100.00;56100.38;5104929;27;50390;-69
2022/04/06 05:47:59;;;;;;;;;1.75;1.75;;;;;-142.59;100.00;56100.38;5101485;27;49882;-67
2022/04/06 05:50:24;;;;;;;;;1.50;1.50;;;;;-142.59;100.00;56100.38;5107493;27;49889;-73
2022/04/06 05:52:50;;;;;;;;;1.75;0.75;;;;;-142.59;100.00;56100.38;5094054;27;49912;-66
2022/04/06 05:55:15;;;;;;;;;1.00;1.00;;;;;-142.59;100.00;56100.38;5092539;27;49797;-72
2022/04/06 05:57:41;;;;;;;;;2.00;2.00;;;;;-142.59;100.00;56100.38;5113037;27;50000;-68
2022/04/06 06:00:08;;;;;;;;;3.00;1.50;;;;;-142.59;100.00;56100.38;5092741;27;49769;-68
2022/04/06 06:02:36;;;;;;;;;1.00;1.00;;;;;-142.59;100.00;56100.38;5102391;27;49770;-73
2022/04/06 06:05:02;;;;;;;;;2.00;2.00;;;;;-142.59;100.00;56100.38;5103794;27;50772;-69
2022/04/06 06:07:27;;;;;;;;;2.50;1.50;;;;;-142.59;100.00;56100.38;5099250;27;49674;-73
2022/04/06 06:09:53;;;;;;;;;1.75;1.75;;;;;-142.59;100.00;56100.38;5091434;27;50149;-68
2022/04/06 06:12:18;;;;;;;;;3.00;3.00;;;;;-142.59;100.00;56100.38;5092853;27;50056;-72
2022/04/06 06:14:43;;;;;;;;;3.00;3.00;;;;;-142.59;100.00;56100.38;5093644;27;51283;-68
2022/04/06 06:17:09;;;;;;;;;4.25;3.50;;;;;-142.59;100.00;56100.38;5099289;27;49916;-71
2022/04/06 06:19:34;;;;;;;;;4.75;3.50;;;;;-142.59;100.00;56100.38;5092757;27;49928;-71
2022/04/06 06:22:00;;;;;;;;;3.50;2.75;;;;;-142.59;100.00;56100.38;5095825;27;49883;-69
2022/04/06 06:24:25;;;;;;;;;3.00;3.00;;;;;-142.59;100.00;56100.38;5093226;27;51070;-71
2022/04/06 06:26:53;;;;;;;;;3.00;3.00;;;;;-142.59;100.00;56100.38;5103679;27;49993;-73
2022/04/06 06:29:19;;;;;;;;;3.00;3.00;;;;;-142.59;100.00;56100.38;5107239;27;49785;-73
2022/04/06 06:31:44;;;;;;;;;2.00;2.00;;;;;-142.59;100.00;56100.38;5091653;27;49305;-69
2022/04/06 06:34:10;;;;;;;;;6.75;3.25;;;;;-142.59;100.00;56100.38;5091597;27;50321;-73
2022/04/06 06:36:35;;;;;;;;;2.25;2.00;;;;;-142.59;100.00;56100.38;5091946;27;49705;-73
2022/04/06 06:39:01;;;;;;;;;2.00;2.00;;;;;-142.59;100.00;56100.38;5095059;27;50055;-71
2022/04/06 06:41:27;;;;;;;;;3.00;3.00;;;;;-142.59;100.00;56100.38;5097066;27;50592;-73
2022/04/06 06:43:53;;;;;;;;;2.50;2.25;;;;;-142.59;100.00;56100.38;5092800;27;49837;-68
2022/04/06 06:46:21;;;;;;;;;2.50;1.50;;;;;-142.59;100.00;56100.38;5107501;27;49855;-74
2022/04/06 06:48:47;;;;;;;;;4.00;2.00;;;;;-142.59;100.00;56100.38;5099758;27;49620;-76
2022/04/06 06:51:14;;;;;;;;;2.50;2.50;;;;;-142.59;100.00;56100.38;5095485;27;49879;-72
2022/04/06 06:53:39;;;;;;;;;2.50;2.50;;;;;-142.59;100.00;56100.38;5106615;27;50535;-73
2022/04/06 06:56:05;;;;;;;;;2.25;2.00;;;;;-142.59;100.00;56100.38;5095761;27;49780;-72
2022/04/06 06:58:31;;;;;;;;;4.50;3.00;;;;;-142.59;100.00;56100.38;5091569;27;49911;-72
2022/04/06 07:00:57;;;;;;;;;3.50;3.50;;;;;-142.59;100.00;56100.38;5101081;27;49742;-70
2022/04/06 07:03:22;;;;;;;;;2.00;2.00;;;;;-142.59;100.00;56100.38;5091735;27;50507;-69
2022/04/06 07:05:48;;;;;;;;;1.00;1.00;;;;;-142.59;100.00;56100.38;5091790;27;49861;-71
2022/04/06 07:08:14;;;;;;;;;1.50;1.50;;;;;-142.59;100.00;56100.38;5092002;27;50223;-72
2022/04/06 07:10:44;;;;;;;;;1.00;1.00;;;;;-142.59;100.00;56100.38;5093077;27;49739;-71
2022/04/06 07:13:12;;;;;;;;;3.75;1.50;;;;;-142.59;100.00;56100.38;5095232;27;49779;-70
2022/04/06 07:15:41;;;;;;;;;4.00;3.00;;;;;-142.59;100.00;56100.38;5101575;27;49929;-72
2022/04/06 07:18:08;;;;;;;;;2.75;1.50;;;;;-142.59;100.00;56100.38;5098365;27;49804;-72
2022/04/06 07:20:35;;;;;;;;;3.25;2.00;;;;;-142.59;100.00;56100.38;5091674;27;49894;-72
2022/04/06 07:23:02;;;;;;;;;2.00;2.00;;;;;-142.59;100.00;56100.38;5096258;27;51523;-70
2022/04/06 07:25:27;;;;;;;;;3.00;2.75;;;;;-142.59;100.00;56100.38;5100202;27;49685;-74
2022/04/06 07:27:52;;;;;;;;;2.00;2.00;;;;;-142.59;100.00;56100.38;5104599;27;49944;-74
2022/04/06 07:30:18;;;;;;;;;2.00;2.00;;;;;-142.59;100.00;56100.38;5097520;27;49784;-72
2022/04/06 07:32:43;;;;;;;;;2.00;1.50;;;;;-142.59;100.00;56100.38;5102988;27;51817;-72
2022/04/06 07:35:09;;;;;;;;;2.75;1.25;;;;;-142.59;100.00;56100.38;5111369;27;50130;-73
2022/04/06 07:37:42;;;;;;;;;2.00;2.00;;;;;-142.59;100.00;56100.38;5100622;27;49778;-73
2022/04/06 07:40:10;;;;;;;;;3.00;3.00;;;;;-142.59;100.00;56100.38;5109539;27;49689;-73
2022/04/06 07:42:37;;;;;;;;;2.25;2.00;;;;;-142.59;100.00;56100.38;5111181;27;50664;-74
2022/04/06 07:45:04;;;;;;;;;1.00;1.00;;;;;-142.59;100.00;56100.38;5110829;27;49875;-74
2022/04/06 07:47:32;;;;;;;;;2.00;2.00;;;;;-142.59;100.00;56100.38;5111262;27;49745;-71
2022/04/06 07:50:03;;;;;;;;;1.50;1.50;;;;;-142.59;100.00;56100.38;5111265;27;49932;-72
2022/04/06 07:52:30;;;;;;;;;2.00;1.00;;;;;-142.59;100.00;56100.38;5110940;27;50246;-74
2022/04/06 07:54:56;;;;;;;;;2.25;2.25;;;;;-142.59;100.00;56100.38;5110885;27;49929;-72
2022/04/06 07:57:24;;;;;;;;;1.00;1.00;;;;;-142.59;100.00;56100.38;5111075;27;49660;-73
2022/04/06 07:59:50;;;;;;;;;2.50;2.50;;;;;-142.59;100.00;56100.38;5110892;27;49839;-72
2022/04/06 08:02:16;;;;;;;;;2.00;1.50;;;;;-142.59;100.00;56100.38;5110938;27;50985;-71
2022/04/06 08:04:42;;;;;;;;;1.75;1.75;;;;;-142.59;100.00;56100.38;5110706;27;49768;-73
2022/04/06 08:07:07;;;;;;;;;2.00;1.00;;;;;-142.59;100.00;56100.38;5110906;27;50048;-72
2022/04/06 08:09:33;;;;;;;;;0.75;0.75;;;;;-142.59;100.00;56100.38;5092508;27;50309;-73
2022/04/06 08:11:59;;;;;;;;;1.75;1.75;;;;;-142.59;100.00;56100.38;5104465;27;50418;-71
2022/04/06 08:14:24;;;;;;;;;1.00;1.00;;;;;-142.59;100.00;56100.38;5094185;27;49820;-72
2022/04/06 08:16:55;;;;;;;;;1.25;1.25;;;;;-142.59;100.00;56100.38;5091230;27;49696;-71
2022/04/06 08:19:24;;;;;;;;;2.50;1.00;;;;;-142.59;100.00;56100.38;5092620;27;49857;-71
2022/04/06 08:21:50;;;;;;;;;1.25;1.00;;;;;-142.59;100.00;56100.38;5106626;27;50476;-73
2022/04/06 08:24:16;;;;;;;;;0.75;0.75;;;;;-142.59;100.00;56100.38;5105869;27;49730;-72
2022/04/06 08:26:42;;;;;;;;;2.25;2.25;;;;;-142.59;100.00;56100.38;5103289;27;49918;-74
2022/04/06 08:29:07;;;;;;;;;2.00;2.00;;;;;-142.59;100.00;56100.38;5099305;27;49753;-70
2022/04/06 08:31:33;;;;;;;;;1.00;1.00;;;;;-142.59;100.00;56100.38;5091598;27;51054;-71
2022/04/06 08:33:58;;;;;;;;;0.50;0.50;;;;;-142.59;100.00;56100.38;5090643;27;49693;-70
2022/04/06 08:36:23;;;;;;;;;1.25;1.25;;;;;-142.59;100.00;56100.38;5091011;27;49838;-71
2022/04/06 08:38:49;;;;;;;;;2.00;2.00;;;;;-142.59;100.00;56100.38;5090921;27;50313;-72
2022/04/06 08:41:16;;;;;;;;;2.00;2.00;;;;;-142.59;100.00;56100.38;5090437;27;49696;-70
2022/04/06 08:43:42;;;;;;;;;2.00;1.00;;;;;-142.59;100.00;56100.38;5090418;27;49878;-65
2022/04/06 08:46:10;;;;;;;;;0.50;0.50;;;;;-142.59;100.00;56100.38;5090627;27;49908;-63
2022/04/06 08:48:37;;;;;;;;;1.00;1.00;;;;;-142.59;100.00;56100.38;5097628;27;49925;-63
2022/04/06 08:51:07;;;;;;;;;0.75;0.75;;;;;-142.59;100.00;56100.38;5090976;27;50484;-71
2022/04/06 08:53:33;;;;;;;;;1.00;1.00;;;;;-142.59;100.00;56100.38;5092711;27;49825;-70
2022/04/06 08:55:58;;;;;;;;;0.75;0.75;;;;;-142.59;100.00;56100.38;5093657;27;49605;-67
2022/04/06 08:58:24;;;;;;;;;1.25;0.75;;;;;-142.59;100.00;56100.38;5098867;27;49806;-69
2022/04/06 09:00:49;;;;;;;;;2.75;0.00;;;;;-142.59;100.00;56100.38;5093776;27;50600;-63
2022/04/06 09:03:16;;;;;;;;;1.25;0.25;;;;;-142.59;100.00;56100.38;5094090;27;49720;-64
2022/04/06 09:05:42;;;;;;;;;0.25;0.25;;;;;-142.59;100.00;56100.38;5094024;27;49787;-63
2022/04/06 09:08:08;;;;;;;;;0.25;0.25;;;;;-142.59;100.00;56100.38;5094210;27;49821;-63
2022/04/06 09:10:38;;;;;;;;;0.00;0.00;;;;;-142.59;100.00;56100.38;5094010;27;50575;-61
2022/04/06 09:13:25;;;;;;;;;2.00;1.00;;;;;-142.59;100.00;56100.38;5093704;27;49745;-63
2022/04/06 09:16:00;;;;;;;;;1.00;1.00;;;;;-142.59;100.00;56100.38;5093692;27;49756;-62
2022/04/06 09:18:33;;;;;;;;;0.00;0.00;;;;;-142.59;100.00;56100.38;5093867;27;50202;-64
2022/04/06 09:21:00;;;;;;;;;2.00;2.00;;;;;-142.59;100.00;56100.38;5093511;27;49671;-62
2022/04/06 09:23:29;;;;;;;;;0.00;0.00;;;;;-142.59;100.00;56100.38;5093759;27;49734;-62
2022/04/06 09:25:55;;;;;;;;;1.75;1.75;;;;;-142.59;100.00;56100.38;5093694;27;49815;-62
2022/04/06 09:28:20;;;;;;;;;6.50;3.75;;;;;-142.59;100.00;56100.38;5093756;27;49757;-62
2022/04/06 09:30:46;;;;;;;;;2.00;2.00;;;;;-142.59;100.00;56100.38;5093606;27;49721;-62
2022/04/06 09:33:16;;;;;;;;;1.25;1.25;;;;;-142.59;100.00;56100.38;5093524;27;49766;-62
2022/04/06 09:35:42;;;;;;;;;0.00;0.00;;;;;-142.59;100.00;56100.38;5093640;27;49968;-63
2022/04/06 09:38:09;;;;;;;;;5.75;3.25;;;;;-142.59;100.00;56100.38;5093586;27;49852;-62
2022/04/06 09:40:35;;;;;;;;;1.25;1.25;;;;;-142.59;100.00;56100.38;5093250;27;49844;-62
2022/04/06 09:43:00;;;;;;;;;2.00;1.00;;;;;-142.59;100.00;56100.38;5093455;27;49957;-61
2022/04/06 09:48:13;;;;;;;;;1.00;1.00;;;;;-142.59;100.00;56100.38;5093748;27;49697;-62
2022/04/06 09:50:38;;;;;;;;;1.00;1.00;;;;;-142.59;100.00;56100.38;5093099;27;49949;-62
2022/04/06 09:53:06;;;;;;;;;3.50;0.50;;;;;-142.59;100.00;56100.38;5093102;27;49881;-64
2022/04/06 09:55:32;;;;;;;;;0.00;0.00;;;;;-142.59;100.00;56100.38;5095861;27;49785;-64
2022/04/06 09:57:59;;;;;;;;;1.00;1.00;;;;;-142.59;100.00;56100.38;5093292;27;49794;-64
2022/04/06 10:00:26;;;;;;;;;2.00;1.00;;;;;-142.59;100.00;56100.38;5093238;27;50417;-64
2022/04/06 10:03:07;;;;;;;;;1.00;1.00;;;;;-142.59;100.00;56100.38;5092271;27;49739;-65
2022/04/06 10:05:34;;;;;;;;;2.00;1.00;;;;;-142.59;100.00;56100.38;5092952;27;49765;-65
2022/04/06 10:08:01;;;;;;;;;0.50;0.50;;;;;-142.59;100.00;56100.38;5095801;27;50951;-64
2022/04/06 10:10:27;;;;;;;;;1.00;1.00;;;;;-142.59;100.00;56100.38;5092789;27;50493;-65
2022/04/06 10:12:53;;;;;;;;;0.00;0.00;;;;;-142.59;100.00;56100.38;5092489;27;49670;-65
2022/04/06 10:15:19;;;;;;;;;1.00;1.00;;;;;-142.59;100.00;56100.38;5093026;27;49660;-64
2022/04/06 10:17:45;;;;;;;;;1.00;1.00;;;;;-142.59;100.00;56100.38;5093025;27;50000;-65
2022/04/06 10:20:27;;;;;;;;;1.00;1.00;;;;;-142.59;100.00;56100.38;5092831;27;50416;-64
2022/04/06 10:22:57;;;;;;;;;0.75;0.50;;;;;-142.59;100.00;56100.38;5092808;27;49956;-64
2022/04/06 10:25:47;;;;;;;;;1.00;1.00;;;;;-142.59;100.00;56100.38;5092935;27;49815;-65
2022/04/06 10:28:14;;;;;;;;;1.00;1.00;;;;;-142.59;100.00;56100.38;5092318;27;49817;-66
2022/04/06 10:30:39;;;;;;;;;1.00;1.00;;;;;-142.59;100.00;56100.38;5092322;27;49759;-66
2022/04/06 10:33:20;;;;;;;;;2.25;2.25;;;;;-142.59;100.00;56100.38;5092642;27;49898;-70
2022/04/06 10:35:46;;;;;;;;;1.50;1.50;;;;;-142.59;100.00;56100.38;5097695;27;49802;-68
2022/04/06 10:38:11;;;;;;;;;2.75;1.75;;;;;-142.59;100.00;56100.38;5092984;27;49930;-66
2022/04/06 10:40:45;;;;;;;;;2.00;2.00;;;;;-142.59;100.00;56100.38;5092496;27;50093;-66
2022/04/06 10:43:36;;;;;;;;;2.00;2.00;;;;;-142.59;100.00;56100.38;5090949;27;49754;-77
2022/04/06 10:46:07;;;;;;;;;2.00;2.00;;;;;-142.59;100.00;56100.38;5092195;27;49600;-68
2022/04/06 10:48:32;;;;;;;;;2.75;2.00;;;;;-142.59;100.00;56100.38;5092368;27;49860;-74
2022/04/06 10:51:33;;;;;;;;;3.00;3.00;;;;;-142.59;100.00;56100.38;5092022;27;51096;-78
2022/04/06 10:53:58;;;;;;;;;4.00;2.25;;;;;-142.59;100.00;56100.38;5087890;27;49955;-67
2022/04/06 10:56:24;;;;;;;;;4.00;3.50;;;;;-142.59;100.00;56100.38;5092259;27;49730;-67
2022/04/06 10:58:55;;;;;;;;;2.00;2.00;;;;;-142.59;100.00;56100.38;5098818;27;50148;-64
2022/04/06 11:01:31;;;;;;;;;2.75;2.50;;;;;-142.59;100.00;56100.38;5101698;27;49725;-62
2022/04/06 11:04:00;;;;;;;;;0.50;0.50;;;;;-142.59;100.00;56100.38;5104744;27;49646;-64
2022/04/06 11:06:52;;;;;;;;;3.00;3.00;;;;;-142.59;100.00;56100.38;5096943;27;50026;-61
2022/04/06 11:12:15;;;;;;;;;4.75;3.00;;;;;-142.59;100.00;56100.38;5101572;27;50010;-63
2022/04/06 11:14:43;;;;;;;;;5.25;3.50;;;;;-142.59;100.00;56100.38;5102474;27;49609;-63
2022/04/06 11:17:42;;;;;;;;;4.00;3.00;;;;;-142.59;100.00;56100.38;5115830;27;49950;-63